createdAt,value
2018-05-01T00:01:10.394Z,8.13
2018-05-01T00:03:39.338Z,8.43
2018-05-01T00:06:08.271Z,9.13
2018-05-01T00:08:37.209Z,8.27
2018-05-01T00:11:06.912Z,9.03
2018-05-01T00:13:36.649Z,8.13
2018-05-01T00:16:05.590Z,8.20
2018-05-01T00:18:34.512Z,8.20
2018-05-01T00:21:04.252Z,7.70
2018-05-01T00:23:33.159Z,9.47
2018-05-01T00:26:02.093Z,8.70
2018-05-01T00:28:31.006Z,8.60
2018-05-01T00:30:59.977Z,8.30
2018-05-01T00:33:29.697Z,8.40
2018-05-01T00:35:59.498Z,7.83
2018-05-01T00:38:29.155Z,8.10
2018-05-01T00:40:58.068Z,8.07
2018-05-01T00:43:26.979Z,8.40
2018-05-01T00:45:55.866Z,9.43
2018-05-01T00:48:24.775Z,8.67
2018-05-01T00:50:54.475Z,8.20
2018-05-01T00:53:24.203Z,9.00
2018-05-01T00:55:53.888Z,9.03
2018-05-01T00:58:22.786Z,8.20
2018-05-01T01:00:52.454Z,7.67
2018-05-01T01:03:21.331Z,7.93
2018-05-01T01:05:50.269Z,8.80
2018-05-01T01:08:19.202Z,8.47
2018-05-01T01:10:48.097Z,7.87
2018-05-01T01:13:16.999Z,7.47
2018-05-01T01:15:45.910Z,7.37
2018-05-01T01:18:14.808Z,7.93
2018-05-01T01:20:43.730Z,7.17
2018-05-01T01:23:12.652Z,7.50
2018-05-01T01:25:41.596Z,8.40
2018-05-01T01:28:11.259Z,8.00
2018-05-01T01:30:40.176Z,8.60
2018-05-01T01:33:09.485Z,7.57
2018-05-01T01:35:37.538Z,7.30
2018-05-01T01:38:05.716Z,8.17
2018-05-01T01:40:33.851Z,7.80
2018-05-01T01:43:02.050Z,8.37
2018-05-01T01:45:30.241Z,7.93
2018-05-01T01:47:58.375Z,8.37
2018-05-01T01:50:26.527Z,8.10
2018-05-01T01:52:54.638Z,8.43
2018-05-01T01:55:22.807Z,8.87
2018-05-01T01:57:50.945Z,8.07
2018-05-01T02:00:19.880Z,7.47
2018-05-01T02:02:48.060Z,7.43
2018-05-01T02:05:16.194Z,8.37
2018-05-01T02:07:44.377Z,7.90
2018-05-01T02:10:12.516Z,7.80
2018-05-01T02:12:41.449Z,9.00
2018-05-01T02:15:09.645Z,8.40
2018-05-01T02:17:37.817Z,8.17
2018-05-01T02:20:05.987Z,8.47
2018-05-01T02:22:34.099Z,7.80
2018-05-01T02:25:03.045Z,8.87
2018-05-01T02:27:31.228Z,8.07
2018-05-01T02:29:59.367Z,7.70
2018-05-01T02:32:27.507Z,7.77
2018-05-01T02:34:56.520Z,7.77
2018-05-01T02:37:24.702Z,6.67
2018-05-01T02:39:52.867Z,7.07
2018-05-01T02:42:21.065Z,7.50
2018-05-01T02:44:49.252Z,6.60
2018-05-01T02:47:17.429Z,7.43
2018-05-01T02:49:45.662Z,7.43
2018-05-01T02:52:19.287Z,7.63
2018-05-01T02:54:47.431Z,7.50
2018-05-01T02:57:16.339Z,7.67
2018-05-01T02:59:44.466Z,7.53
2018-05-01T03:02:12.708Z,7.20
2018-05-01T03:04:40.873Z,8.17
2018-05-01T03:07:08.994Z,7.77
2018-05-01T03:09:37.974Z,7.77
2018-05-01T03:12:06.815Z,7.37
2018-05-01T03:14:35.008Z,7.13
2018-05-01T03:17:03.154Z,7.60
2018-05-01T03:19:31.267Z,7.63
2018-05-01T03:21:59.424Z,7.40
2018-05-01T03:24:27.612Z,8.03
2018-05-01T03:26:55.809Z,7.73
2018-05-01T03:29:23.968Z,7.13
2018-05-01T03:31:52.142Z,7.43
2018-05-01T03:34:20.319Z,7.40
2018-05-01T03:36:48.521Z,7.60
2018-05-01T03:39:17.427Z,7.33
2018-05-01T03:41:45.584Z,7.77
2018-05-01T03:44:13.718Z,7.80
2018-05-01T03:46:41.900Z,7.17
2018-05-01T03:49:10.073Z,7.07
2018-05-01T03:51:38.199Z,7.50
2018-05-01T03:54:06.364Z,6.70
2018-05-01T03:56:34.486Z,7.03
2018-05-01T03:59:02.622Z,8.27
2018-05-01T04:01:31.608Z,7.00
2018-05-01T04:03:59.731Z,7.90
2018-05-01T04:06:27.862Z,7.60
2018-05-01T04:08:56.021Z,7.90
2018-05-01T04:11:25.119Z,8.00
2018-05-01T04:13:53.286Z,8.00
2018-05-01T04:16:21.472Z,8.90
2018-05-01T04:18:49.647Z,8.00
2018-05-01T04:21:17.800Z,8.30
2018-05-01T04:23:46.747Z,7.83
2018-05-01T04:26:14.918Z,7.70
2018-05-01T04:28:43.101Z,9.20
2018-05-01T04:31:11.322Z,7.73
2018-05-01T04:33:39.459Z,6.70
2018-05-01T04:36:07.650Z,7.90
2018-05-01T04:38:35.840Z,6.40
2018-05-01T04:41:04.028Z,7.37
2018-05-01T04:43:32.187Z,6.90
2018-05-01T04:46:00.317Z,5.63
2018-05-01T04:48:28.455Z,4.80
2018-05-01T04:50:56.644Z,5.40
2018-05-01T04:53:24.833Z,6.47
2018-05-01T04:55:53.012Z,5.73
2018-05-01T04:58:27.095Z,5.97
2018-05-01T05:00:55.366Z,5.70
2018-05-01T05:03:23.553Z,5.53
2018-05-01T05:05:51.724Z,5.93
2018-05-01T05:08:19.859Z,5.70
2018-05-01T05:10:48.069Z,4.40
2018-05-01T05:13:16.206Z,5.37
2018-05-01T05:15:44.383Z,4.83
2018-05-01T05:18:12.557Z,4.50
2018-05-01T05:20:40.720Z,4.90
2018-05-01T05:23:09.687Z,4.50
2018-05-01T05:25:37.882Z,4.77
2018-05-01T05:28:06.077Z,4.50
2018-05-01T05:30:34.537Z,3.87
2018-05-01T05:33:02.820Z,4.93
2018-05-01T05:35:31.003Z,4.40
2018-05-01T05:37:59.187Z,5.53
2018-05-01T05:40:27.423Z,4.60
2018-05-01T05:42:55.585Z,4.10
2018-05-01T05:45:23.768Z,4.27
2018-05-01T05:47:51.948Z,3.73
2018-05-01T05:50:20.855Z,3.60
2018-05-01T05:52:49.042Z,3.80
2018-05-01T05:55:17.198Z,3.67
2018-05-01T05:57:45.456Z,3.80
2018-05-01T06:00:13.620Z,3.27
2018-05-01T06:02:43.220Z,3.53
2018-05-01T06:05:11.418Z,3.77
2018-05-01T06:07:40.448Z,3.03
2018-05-01T06:10:08.568Z,3.97
2018-05-01T06:12:36.730Z,3.33
2018-05-01T06:15:04.897Z,3.67
2018-05-01T06:17:33.116Z,3.17
2018-05-01T06:20:01.266Z,3.10
2018-05-01T06:22:29.395Z,3.67
2018-05-01T06:24:57.554Z,3.70
2018-05-01T06:27:25.729Z,3.33
2018-05-01T06:29:53.878Z,3.10
2018-05-01T06:32:22.764Z,3.27
2018-05-01T06:34:51.647Z,3.80
2018-05-01T06:37:20.647Z,3.83
2018-05-01T06:39:48.808Z,3.70
2018-05-01T06:42:18.070Z,4.03
2018-05-01T06:44:46.285Z,3.43
2018-05-01T06:47:14.485Z,3.70
2018-05-01T06:49:42.648Z,4.23
2018-05-01T06:52:10.823Z,4.13
2018-05-01T06:54:39.036Z,3.70
2018-05-01T06:57:07.182Z,3.67
2018-05-01T06:59:35.306Z,3.93
2018-05-01T07:02:03.435Z,3.73
2018-05-01T07:04:31.601Z,4.00
2018-05-01T07:06:59.770Z,3.80
2018-05-01T07:09:27.923Z,3.10
2018-05-01T07:11:56.094Z,3.07
2018-05-01T07:14:25.061Z,3.53
2018-05-01T07:16:53.169Z,2.87
2018-05-01T07:19:21.348Z,2.73
2018-05-01T07:21:49.524Z,2.83
2018-05-01T07:24:17.694Z,2.77
2018-05-01T07:26:45.806Z,3.50
2018-05-01T07:29:13.949Z,3.03
2018-05-01T07:31:42.074Z,3.30
2018-05-01T07:34:10.223Z,3.03
2018-05-01T07:36:38.425Z,2.77
2018-05-01T07:39:06.559Z,3.40
2018-05-01T07:41:34.722Z,2.80
2018-05-01T07:44:03.656Z,3.30
2018-05-01T07:46:32.590Z,2.77
2018-05-01T07:49:01.573Z,2.73
2018-05-01T07:51:29.712Z,2.30
2018-05-01T07:53:57.891Z,2.80
2018-05-01T07:56:26.080Z,3.33
2018-05-01T07:58:55.013Z,2.80
2018-05-01T08:01:23.166Z,2.70
2018-05-01T08:03:51.327Z,3.00
2018-05-01T08:06:19.467Z,2.43
2018-05-01T08:08:47.623Z,2.73
2018-05-01T08:11:15.816Z,2.93
2018-05-01T08:13:44.005Z,2.90
2018-05-01T08:16:12.936Z,3.17
2018-05-01T08:18:41.159Z,3.20
2018-05-01T08:21:09.364Z,2.70
2018-05-01T08:23:37.496Z,2.87
2018-05-01T08:26:05.668Z,2.80
2018-05-01T08:28:33.811Z,2.90
2018-05-01T08:31:01.980Z,2.70
2018-05-01T08:33:30.124Z,3.20
2018-05-01T08:35:58.271Z,3.00
2018-05-01T08:38:27.205Z,3.03
2018-05-01T08:40:55.399Z,3.27
2018-05-01T08:43:23.789Z,3.20
2018-05-01T08:45:52.035Z,2.93
2018-05-01T08:48:20.215Z,3.57
2018-05-01T08:50:48.376Z,3.20
2018-05-01T08:53:17.204Z,3.40
2018-05-01T08:55:45.439Z,2.70
2018-05-01T08:58:13.616Z,2.77
2018-05-01T09:00:41.784Z,3.23
2018-05-01T09:03:10.163Z,2.60
2018-05-01T09:05:38.609Z,2.53
2018-05-01T09:08:06.801Z,2.87
2018-05-01T09:10:34.928Z,2.70
2018-05-01T09:13:03.100Z,2.60
2018-05-01T09:15:31.358Z,2.37
2018-05-01T09:18:00.318Z,2.70
2018-05-01T09:20:28.404Z,2.50
2018-05-01T09:22:56.541Z,2.70
2018-05-01T09:25:25.471Z,2.40
2018-05-01T09:27:53.727Z,2.40
2018-05-01T09:30:21.872Z,2.63
2018-05-01T09:32:50.043Z,1.90
2018-05-01T09:35:18.208Z,2.37
2018-05-01T09:37:46.385Z,2.30
2018-05-01T09:40:15.294Z,2.10
2018-05-01T09:42:44.202Z,1.87
2018-05-01T09:45:12.361Z,1.73
2018-05-01T09:47:41.359Z,1.80
2018-05-01T09:50:09.523Z,2.37
2018-05-01T09:52:38.453Z,1.70
2018-05-01T09:55:07.330Z,1.90
2018-05-01T09:57:36.224Z,1.77
2018-05-01T10:00:05.132Z,2.00
2018-05-01T10:02:34.025Z,2.17
2018-05-01T10:05:02.962Z,2.03
2018-05-01T10:07:32.656Z,1.90
2018-05-01T10:10:01.533Z,2.33
2018-05-01T10:12:30.442Z,2.50
2018-05-01T10:14:59.369Z,2.13
2018-05-01T10:17:28.268Z,1.97
2018-05-01T10:19:57.481Z,1.97
2018-05-01T10:22:26.413Z,2.47
2018-05-01T10:24:55.325Z,2.40
2018-05-01T10:27:24.235Z,2.43
2018-05-01T10:29:53.995Z,2.83
2018-05-01T10:32:22.874Z,2.10
2018-05-01T10:34:51.801Z,2.23
2018-05-01T10:37:21.483Z,2.13
2018-05-01T10:39:50.386Z,1.93
2018-05-01T10:42:19.335Z,2.30
2018-05-01T10:44:48.210Z,2.50
2018-05-01T10:47:17.104Z,2.30
2018-05-01T10:49:46.056Z,2.03
2018-05-01T10:52:16.843Z,2.10
2018-05-01T10:54:46.852Z,1.80
2018-05-01T10:57:15.800Z,1.87
2018-05-01T10:59:45.555Z,1.77
2018-05-01T11:02:14.431Z,1.97
2018-05-01T11:04:43.349Z,2.10
2018-05-01T11:07:12.268Z,2.23
2018-05-01T11:09:41.196Z,2.30
2018-05-01T11:12:10.097Z,1.80
2018-05-01T11:14:38.987Z,1.70
2018-05-01T11:17:07.906Z,1.93
2018-05-01T11:19:36.856Z,2.13
2018-05-01T11:22:06.556Z,1.87
2018-05-01T11:24:36.250Z,2.33
2018-05-01T11:27:05.164Z,2.17
2018-05-01T11:29:34.112Z,1.97
2018-05-01T11:32:03.787Z,1.67
2018-05-01T11:34:34.081Z,2.33
2018-05-01T11:37:02.987Z,1.90
2018-05-01T11:39:31.977Z,1.80
2018-05-01T11:42:00.897Z,2.10
2018-05-01T11:44:29.881Z,1.93
2018-05-01T11:46:58.797Z,2.17
2018-05-01T11:49:27.699Z,1.83
2018-05-01T11:51:56.655Z,2.40
2018-05-01T11:54:25.539Z,2.17
2018-05-01T11:56:54.481Z,3.93
2018-05-01T11:59:23.417Z,1.63
2018-05-01T12:01:52.384Z,1.80
2018-05-01T12:04:21.342Z,2.00
2018-05-01T12:06:50.319Z,1.80
2018-05-01T12:09:19.219Z,2.27
2018-05-01T12:11:48.184Z,1.80
2018-05-01T12:14:17.076Z,1.67
2018-05-01T12:16:45.984Z,2.00
2018-05-01T12:19:14.905Z,1.77
2018-05-01T12:21:43.815Z,2.30
2018-05-01T12:24:13.480Z,1.87
2018-05-01T12:26:42.405Z,1.97
2018-05-01T12:29:12.076Z,1.80
2018-05-01T12:31:41.006Z,1.50
2018-05-01T12:34:10.713Z,1.73
2018-05-01T12:36:40.451Z,1.40
2018-05-01T12:39:09.308Z,1.73
2018-05-01T12:41:38.983Z,1.80
2018-05-01T12:44:07.923Z,1.50
2018-05-01T12:46:36.820Z,3.60
2018-05-01T12:49:05.733Z,1.70
2018-05-01T12:51:34.663Z,1.37
2018-05-01T12:54:04.143Z,2.00
2018-05-01T12:56:33.114Z,1.67
2018-05-01T12:59:02.033Z,1.77
2018-05-01T13:01:30.932Z,2.10
2018-05-01T13:03:59.886Z,1.20
2018-05-01T13:06:28.781Z,1.63
2018-05-01T13:08:57.706Z,1.93
2018-05-01T13:11:26.599Z,1.83
2018-05-01T13:13:55.499Z,1.70
2018-05-01T13:16:24.373Z,1.73
2018-05-01T13:18:53.280Z,1.40
2018-05-01T13:21:22.209Z,1.70
2018-05-01T13:23:51.138Z,3.40
2018-05-01T13:26:20.043Z,2.60
2018-05-01T13:28:48.976Z,1.63
2018-05-01T13:31:17.928Z,1.80
2018-05-01T13:33:46.840Z,1.60
2018-05-01T13:36:16.502Z,1.50
2018-05-01T13:38:45.414Z,1.33
2018-05-01T13:41:14.404Z,1.60
2018-05-01T13:43:43.275Z,1.70
2018-05-01T13:46:12.215Z,2.10
2018-05-01T13:48:42.086Z,1.77
2018-05-01T13:51:11.049Z,1.73
2018-05-01T13:53:40.731Z,1.47
2018-05-01T13:56:10.747Z,1.73
2018-05-01T13:58:40.445Z,3.67
2018-05-01T14:01:09.393Z,2.80
2018-05-01T14:03:38.305Z,1.60
2018-05-01T14:06:07.283Z,1.60
2018-05-01T14:08:36.220Z,2.27
2018-05-01T14:11:05.227Z,1.80
2018-05-01T14:13:34.121Z,1.23
2018-05-01T14:16:03.028Z,1.20
2018-05-01T14:18:31.955Z,1.63
2018-05-01T14:21:00.909Z,1.90
2018-05-01T14:23:29.837Z,1.50
2018-05-01T14:25:58.731Z,1.10
2018-05-01T14:28:27.669Z,1.80
2018-05-01T14:30:56.540Z,1.73
2018-05-01T14:33:25.457Z,1.30
2018-05-01T14:35:54.359Z,1.80
2018-05-01T14:38:23.234Z,1.77
2018-05-01T14:40:52.177Z,1.80
2018-05-01T14:43:21.870Z,1.70
2018-05-01T14:45:50.772Z,1.33
2018-05-01T14:48:19.721Z,1.43
2018-05-01T14:50:48.681Z,2.33
2018-05-01T14:53:18.358Z,2.07
2018-05-01T14:55:47.274Z,1.80
2018-05-01T14:58:16.539Z,2.13
2018-05-01T15:00:45.454Z,1.20
2018-05-01T15:03:14.366Z,3.33
2018-05-01T15:05:44.107Z,2.20
2018-05-01T15:08:13.010Z,1.93
2018-05-01T15:10:41.944Z,1.40
2018-05-01T15:13:10.867Z,1.63
2018-05-01T15:15:39.808Z,1.87
2018-05-01T15:18:08.721Z,1.37
2018-05-01T15:20:39.646Z,1.30
2018-05-01T15:23:08.564Z,1.83
2018-05-01T15:25:38.301Z,1.63
2018-05-01T15:28:07.249Z,1.47
2018-05-01T15:30:36.978Z,1.87
2018-05-01T15:33:05.932Z,1.80
2018-05-01T15:35:34.848Z,1.40
2018-05-01T15:38:04.552Z,1.73
2018-05-01T15:40:34.577Z,1.70
2018-05-01T15:43:05.309Z,2.20
2018-05-01T15:45:36.176Z,1.97
2018-05-01T15:48:06.026Z,2.10
2018-05-01T15:50:35.104Z,1.70
2018-05-01T15:53:04.033Z,1.67
2018-05-01T15:55:32.996Z,2.03
2018-05-01T15:58:01.921Z,2.03
2018-05-01T16:00:30.974Z,1.63
2018-05-01T16:02:59.921Z,1.47
2018-05-01T16:05:29.559Z,2.03
2018-05-01T16:07:58.493Z,1.90
2018-05-01T16:10:28.201Z,1.50
2018-05-01T16:12:57.157Z,1.97
2018-05-01T16:15:26.109Z,2.07
2018-05-01T16:17:55.839Z,1.83
2018-05-01T16:20:24.726Z,2.27
2018-05-01T16:22:53.645Z,1.90
2018-05-01T16:25:22.629Z,1.67
2018-05-01T16:27:51.530Z,2.07
2018-05-01T16:30:20.441Z,2.23
2018-05-01T16:32:49.344Z,1.80
2018-05-01T16:35:19.060Z,1.93
2018-05-01T16:37:47.964Z,1.90
2018-05-01T16:40:17.704Z,1.97
2018-05-01T16:42:46.621Z,1.63
2018-05-01T16:45:15.571Z,2.10
2018-05-01T16:47:44.591Z,1.80
2018-05-01T16:50:13.518Z,1.90
2018-05-01T16:52:42.448Z,1.53
2018-05-01T16:55:11.417Z,2.27
2018-05-01T16:57:41.159Z,2.20
2018-05-01T17:00:10.146Z,1.90
2018-05-01T17:02:39.158Z,2.47
2018-05-01T17:05:08.076Z,1.93
2018-05-01T17:07:37.096Z,2.27
2018-05-01T17:10:06.987Z,2.37
2018-05-01T17:12:35.952Z,1.50
2018-05-01T17:15:04.944Z,1.33
2018-05-01T17:17:33.871Z,2.53
2018-05-01T17:20:02.897Z,1.87
2018-05-01T17:22:33.353Z,1.63
2018-05-01T17:25:02.412Z,2.40
2018-05-01T17:27:31.223Z,2.20
2018-05-01T17:30:00.141Z,2.13
2018-05-01T17:32:29.079Z,1.83
2018-05-01T17:34:58.025Z,2.87
2018-05-01T17:37:27.729Z,2.37
2018-05-01T17:39:56.663Z,1.60
2018-05-01T17:42:25.629Z,1.93
2018-05-01T17:44:58.530Z,2.00
2018-05-01T17:47:28.405Z,2.13
2018-05-01T17:49:57.366Z,2.40
2018-05-01T17:52:26.316Z,2.50
2018-05-01T17:57:35.636Z,2.17
2018-05-01T18:00:04.609Z,2.10
2018-05-01T18:02:33.648Z,2.27
2018-05-01T18:05:02.737Z,2.30
2018-05-01T18:07:31.708Z,2.17
2018-05-01T18:10:00.713Z,2.40
2018-05-01T18:12:29.754Z,2.40
2018-05-01T18:15:03.021Z,2.50
2018-05-01T18:17:32.052Z,2.30
2018-05-01T18:20:00.975Z,2.50
2018-05-01T18:22:34.785Z,2.30
2018-05-01T18:25:03.768Z,3.27
2018-05-01T18:27:32.809Z,2.50
2018-05-01T18:30:01.777Z,2.57
2018-05-01T18:32:30.715Z,2.93
2018-05-01T18:35:00.441Z,2.83
2018-05-01T18:37:31.734Z,2.70
2018-05-01T18:40:04.177Z,2.87
2018-05-01T18:42:33.127Z,3.50
2018-05-01T18:45:02.803Z,3.60
2018-05-01T18:47:31.724Z,2.83
2018-05-01T18:50:01.445Z,2.93
2018-05-01T18:52:31.072Z,2.97
2018-05-01T18:55:00.058Z,2.83
2018-05-01T18:57:29.113Z,3.63
2018-05-01T18:59:58.833Z,4.33
2018-05-01T19:02:27.748Z,4.07
2018-05-01T19:04:57.422Z,3.77
2018-05-01T19:07:28.173Z,3.20
2018-05-01T19:09:57.067Z,2.77
2018-05-01T19:12:26.093Z,3.27
2018-05-01T19:14:55.007Z,3.40
2018-05-01T19:17:24.113Z,2.77
2018-05-01T19:19:53.124Z,3.47
2018-05-01T19:22:21.952Z,3.20
2018-05-01T19:24:50.937Z,3.87
2018-05-01T19:27:22.017Z,3.30
2018-05-01T19:29:50.919Z,4.10
2018-05-01T19:32:19.902Z,3.83
2018-05-01T19:34:48.819Z,4.13
2018-05-01T19:37:17.791Z,4.90
2018-05-01T19:39:46.757Z,4.77
2018-05-01T19:42:16.422Z,4.17
2018-05-01T19:44:46.152Z,4.77
2018-05-01T19:47:15.173Z,4.57
2018-05-01T19:49:44.099Z,4.63
2018-05-01T19:52:13.024Z,4.47
2018-05-01T19:54:41.915Z,4.13
2018-05-01T19:57:10.811Z,4.10
2018-05-01T19:59:39.740Z,4.50
2018-05-01T20:02:08.670Z,4.30
2018-05-01T20:04:37.606Z,4.27
2018-05-01T20:07:06.537Z,5.03
2018-05-01T20:09:35.843Z,4.13
2018-05-01T20:12:04.747Z,3.90
2018-05-01T20:14:34.431Z,4.07
2018-05-01T20:17:03.380Z,4.10
2018-05-01T20:19:32.343Z,3.37
2018-05-01T20:22:02.065Z,4.00
2018-05-01T20:24:40.675Z,4.10
2018-05-01T20:27:09.569Z,3.27
2018-05-01T20:29:39.304Z,4.00
2018-05-01T20:32:08.203Z,3.60
2018-05-01T20:34:37.184Z,2.97
2018-05-01T20:37:06.220Z,3.03
2018-05-01T20:39:35.171Z,2.43
2018-05-01T20:42:04.100Z,2.83
2018-05-01T20:44:33.039Z,2.30
2018-05-01T20:47:02.044Z,3.20
2018-05-01T20:49:30.985Z,2.97
2018-05-01T20:51:59.928Z,2.43
2018-05-01T20:54:28.869Z,2.57
2018-05-01T20:56:57.791Z,2.97
2018-05-01T20:59:26.716Z,3.00
2018-05-01T21:01:55.658Z,3.10
2018-05-01T21:04:25.323Z,2.83
2018-05-01T21:06:54.274Z,2.40
2018-05-01T21:09:23.174Z,2.93
2018-05-01T21:11:52.135Z,2.40
2018-05-01T21:14:21.055Z,2.70
2018-05-01T21:16:49.983Z,2.93
2018-05-01T21:19:18.839Z,2.97
2018-05-01T21:21:47.768Z,2.60
2018-05-01T21:24:16.685Z,2.80
2018-05-01T21:26:45.639Z,2.63
2018-05-01T21:29:14.536Z,3.40
2018-05-01T21:31:43.446Z,2.70
2018-05-01T21:34:12.336Z,3.00
2018-05-01T21:36:41.258Z,3.10
2018-05-01T21:39:10.365Z,2.83
2018-05-01T21:41:39.276Z,3.03
2018-05-01T21:44:08.206Z,2.70
2018-05-01T21:46:37.269Z,2.80
2018-05-01T21:49:06.375Z,2.90
2018-05-01T21:51:35.328Z,2.60
2018-05-01T21:54:04.285Z,2.80
2018-05-01T21:56:33.262Z,3.00
2018-05-01T21:59:02.924Z,2.83
2018-05-01T22:01:31.887Z,3.20
2018-05-01T22:04:01.625Z,2.57
2018-05-01T22:06:30.592Z,2.87
2018-05-01T22:09:00.332Z,2.63
2018-05-01T22:11:29.281Z,2.50
2018-05-01T22:13:58.317Z,2.50
2018-05-01T22:16:27.195Z,2.30
2018-05-01T22:18:56.201Z,2.90
2018-05-01T22:21:25.192Z,2.60
2018-05-01T22:23:54.169Z,2.50
2018-05-01T22:26:23.049Z,2.57
2018-05-01T22:29:04.888Z,2.67
2018-05-01T22:31:33.965Z,2.07
2018-05-01T22:34:02.875Z,2.53
2018-05-01T22:36:31.836Z,3.07
2018-05-01T22:39:00.766Z,2.97
2018-05-01T22:41:29.701Z,2.50
2018-05-01T22:43:59.419Z,2.43
2018-05-01T22:46:29.094Z,2.40
2018-05-01T22:48:58.039Z,2.87
2018-05-01T22:51:26.967Z,2.60
2018-05-01T22:53:55.872Z,3.00
2018-05-01T22:56:24.824Z,2.63
2018-05-01T22:58:53.732Z,2.60
2018-05-01T23:01:22.711Z,3.00
2018-05-01T23:03:51.705Z,2.40
2018-05-01T23:06:20.648Z,2.40
2018-05-01T23:08:50.401Z,2.43
2018-05-01T23:11:19.319Z,3.00
2018-05-01T23:13:48.251Z,2.47
2018-05-01T23:16:17.947Z,2.67
2018-05-01T23:18:47.595Z,2.67
2018-05-01T23:21:16.485Z,2.10
2018-05-01T23:23:45.370Z,2.17
2018-05-01T23:26:14.242Z,2.53
2018-05-01T23:28:43.182Z,2.53
2018-05-01T23:31:12.124Z,2.27
2018-05-01T23:33:41.828Z,2.27
2018-05-01T23:36:11.480Z,2.37
2018-05-01T23:38:40.434Z,2.37
2018-05-01T23:41:10.159Z,2.33
2018-05-01T23:43:39.058Z,2.30
2018-05-01T23:46:08.027Z,2.27
2018-05-01T23:48:36.924Z,2.17
2018-05-01T23:51:05.848Z,2.73
2018-05-01T23:53:34.808Z,2.40
2018-05-01T23:56:03.690Z,2.40
2018-05-01T23:58:32.595Z,2.70
